TimeCST,TemperatureF,Dew PointF,Humidity,Sea Level PressureIn,VisibilityMPH,Wind Direction,Wind SpeedMPH,Gust SpeedMPH,PrecipitationIn,Events,Conditions,WindDirDegrees,DateUTC
12:53 AM,30.9,26.1,82,30.17,10.0,Calm,Calm,-,N/A,,Clear,0,2012-11-25 06:53:00
1:53 AM,30.9,26.1,82,30.17,10.0,Calm,Calm,-,N/A,,Clear,0,2012-11-25 07:53:00
2:53 AM,30.0,26.1,85,30.17,10.0,Calm,Calm,-,N/A,,Clear,0,2012-11-25 08:53:00
3:53 AM,28.9,26.1,89,30.17,10.0,Calm,Calm,-,N/A,,Clear,0,2012-11-25 09:53:00
4:53 AM,30.0,25.0,82,30.18,10.0,Calm,Calm,-,N/A,,Clear,0,2012-11-25 10:53:00
5:53 AM,28.9,25.0,85,30.19,10.0,Calm,Calm,-,N/A,,Clear,0,2012-11-25 11:53:00
6:53 AM,28.9,25.0,85,30.20,10.0,Calm,Calm,-,N/A,,Clear,0,2012-11-25 12:53:00
7:53 AM,36.0,26.1,67,30.21,10.0,Calm,Calm,-,N/A,,Clear,0,2012-11-25 13:53:00
8:53 AM,41.0,27.0,57,30.23,10.0,SE,3.5,-,N/A,,Clear,140,2012-11-25 14:53:00
9:53 AM,46.9,26.1,44,30.23,10.0,Calm,Calm,-,N/A,,Clear,0,2012-11-25 15:53:00
10:53 AM,51.1,25.0,36,30.20,10.0,Variable,3.5,-,N/A,,Clear,0,2012-11-25 16:53:00
11:53 AM,54.0,21.9,29,30.17,10.0,SSW,3.5,-,N/A,,Clear,200,2012-11-25 17:53:00
12:53 PM,57.0,19.0,23,30.13,10.0,Calm,Calm,-,N/A,,Clear,0,2012-11-25 18:53:00
1:53 PM,59.0,21.0,23,30.11,10.0,Calm,Calm,-,N/A,,Clear,0,2012-11-25 19:53:00
2:53 PM,59.0,18.0,20,30.10,10.0,WSW,5.8,-,N/A,,Clear,240,2012-11-25 20:53:00
3:53 PM,59.0,19.9,22,30.10,10.0,WSW,5.8,-,N/A,,Clear,240,2012-11-25 21:53:00
4:53 PM,51.1,27.0,39,30.11,10.0,Calm,Calm,-,N/A,,Clear,0,2012-11-25 22:53:00
5:53 PM,45.0,30.0,56,30.12,10.0,Calm,Calm,-,N/A,,Clear,0,2012-11-25 23:53:00
6:53 PM,42.1,30.9,65,30.13,10.0,Calm,Calm,-,N/A,,Clear,0,2012-11-26 00:53:00
7:53 PM,39.9,32.0,73,30.13,10.0,Calm,Calm,-,N/A,,Clear,0,2012-11-26 01:53:00
8:53 PM,39.9,28.0,63,30.14,10.0,Calm,Calm,-,N/A,,Clear,0,2012-11-26 02:53:00
9:53 PM,37.9,28.9,70,30.14,10.0,Calm,Calm,-,N/A,,Clear,0,2012-11-26 03:53:00
10:53 PM,36.0,28.9,76,30.14,10.0,Calm,Calm,-,N/A,,Clear,0,2012-11-26 04:53:00
11:53 PM,36.0,28.9,76,30.13,10.0,Calm,Calm,-,N/A,,Clear,0,2012-11-26 05:53:00